This is the latest recevied weather packets stored in our database for station/object YM2KV-13. If no packets are shown the sender has not sent any weather packets the latest 1 day(s).
| Time | Temp. | Humidity | Pressure | Rain* | Wind** | Luminosity | Snow |
|---|---|---|---|---|---|---|---|
| 1778088590 | 12.22° C | 79% | 1028.1 hPa | - | - | - | - |
| 1778087990 | 12.78° C | 78% | 1028 hPa | - | - | - | - |
| 1778087390 | 12.78° C | 77% | 1028 hPa | - | - | - | - |
| 1778086790 | 12.78° C | 77% | 1028.1 hPa | - | - | - | - |
| 1778086190 | 13.33° C | 75% | 1028.1 hPa | - | - | - | - |
| 1778084390 | 15° C | 69% | 1028.2 hPa | - | - | - | - |
| 1778082590 | 16.11° C | 64% | 1028.2 hPa | - | - | - | - |
| 1778063389 | 18.89° C | 60% | 1028.8 hPa | - | - | - | - |
| 1778062789 | 18.89° C | 60% | 1028.8 hPa | - | - | - | - |
| 1778060389 | 17.78° C | 63% | 1028.9 hPa | - | - | - | - |
| 1778059789 | 17.78° C | 63% | 1029 hPa | - | - | - | - |
| 1778059189 | 17.22° C | 64% | 1029 hPa | - | - | - | - |
| 1778058589 | 17.78° C | 64% | 1029.1 hPa | - | - | - | - |
| 1778057989 | 16.67° C | 69% | 1029.1 hPa | - | - | - | - |
| 1778057389 | 16.67° C | 70% | 1029.1 hPa | - | - | - | - |
| 1778056789 | 16.67° C | 69% | 1029 hPa | - | - | - | - |
| 1778056189 | 16.67° C | 65% | 1029.1 hPa | - | - | - | - |
| 1778055589 | 16.67° C | 66% | 1029 hPa | - | - | - | - |
| 1778054989 | 16.67° C | 69% | 1029 hPa | - | - | - | - |
| 1778054389 | 15° C | 68% | 1028.9 hPa | - | - | - | - |
| 1778053789 | 15° C | 68% | 1028.9 hPa | - | - | - | - |
| 1778053189 | 15° C | 70% | 1028.9 hPa | - | - | - | - |
| 1778052589 | 16.11° C | 66% | 1028.9 hPa | - | - | - | - |
| 1778051989 | 16.11° C | 72% | 1029 hPa | - | - | - | - |
| 1778051389 | 15° C | 74% | 1028.9 hPa | - | - | - | - |
* Rain since midnight (hover to see other rain measurements)
** Current wind speed in m/s (hover to see current wind gust speed)